Noaa Caretta — WNG615 — position and weather

sailwx.info

Track history (hours):
 
Tides and Currents Weather Stations Pressure Air Temp Water Temp Dewpoint Dewpoint Depression Visibility Wind Speed Wind Dir Waves Ship Positions

Noaa Caretta

Last reported at 2016-Jun-09 15:27 UTC. Time now 2016-Jul-27 19:16 UTC.
Position N 30°08' W 085°51'.
Warning: this ship's position is 48 days out of date.

; draft 2.5 m.

Type: Other ship. MMSI: 369943000.

Date/timePositionNaut miles runAvg speedWind from/ knotsBaromVisibWave heightAir tempDewpointWater temp
2016-Jun-09 15:27N 30°08' W 085°51'26 8.3
2016-Jun-09 12:17N 30°11' W 086°21'7 8.2
2016-Jun-09 11:26N 30°12' W 086°29'7 8.2
2016-Jun-09 10:33N 30°13' W 086°37'6 6.0
2016-Jun-09 09:33N 30°14' W 086°44'0 0.0
2016-Jun-09 08:32N 30°14' W 086°44'0 0.0
2016-Jun-09 07:32N 30°14' W 086°44'0 0.0
2016-Jun-09 06:33N 30°14' W 086°44'0 0.0
2016-Jun-09 05:33N 30°14' W 086°44'0 0.0
2016-Jun-09 04:33N 30°14' W 086°44'0 0.0
2016-Jun-09 03:33N 30°14' W 086°44'6 4.3
2016-Jun-09 02:05N 30°14' W 086°51'6 9.1
2016-Jun-09 01:25N 30°13' W 086°58'8 8.9
2016-Jun-09 00:33N 30°13' W 087°07'  
Track history (hours):
 
Tides and Currents Weather Stations Pressure Air Temp Water Temp Dewpoint Dewpoint Depression Visibility Wind Speed Wind Dir Waves Ship Positions

Noaa Caretta

Last reported at 2016-Jun-09 15:27 UTC. Time now 2016-Jul-27 19:16 UTC.
Position N 30°08' W 085°51'.
Warning: this ship's position is 48 days out of date.

; draft 2.5 m.

Type: Other ship. MMSI: 369943000.

Date/timePositionNaut miles runAvg speedWind from/ knotsBaromVisibWave heightAir tempDewpointWater temp
2016-Jun-09 15:27N 30°08' W 085°51'26 8.3
2016-Jun-09 12:17N 30°11' W 086°21'7 8.2
2016-Jun-09 11:26N 30°12' W 086°29'7 8.2
2016-Jun-09 10:33N 30°13' W 086°37'6 6.0
2016-Jun-09 09:33N 30°14' W 086°44'0 0.0
2016-Jun-09 08:32N 30°14' W 086°44'0 0.0
2016-Jun-09 07:32N 30°14' W 086°44'0 0.0
2016-Jun-09 06:33N 30°14' W 086°44'0 0.0
2016-Jun-09 05:33N 30°14' W 086°44'0 0.0
2016-Jun-09 04:33N 30°14' W 086°44'0 0.0
2016-Jun-09 03:33N 30°14' W 086°44'6 4.3
2016-Jun-09 02:05N 30°14' W 086°51'6 9.1
2016-Jun-09 01:25N 30°13' W 086°58'8 8.9
2016-Jun-09 00:33N 30°13' W 087°07'  

Dump ship's entire track history